Time;durP1;ratioP1;P1;durP2;ratioP2;P2;SDS_P1;SDS_P2;PMS_P1;PMS_P2;Temp;Humidity;BMP_temperature;BMP_pressure;BME280_temperature;BME280_humidity;BME280_pressure;Samples;Min_cycle;Max_cycle;Signal;HPM_P1;HPM_P2
2021/05/13 00:01:00;;;;;;;64.22;39.45;;;10.90;99.90;;;;;;4972650;28;20540;-73
2021/05/13 00:03:26;;;;;;;60.35;40.13;;;10.90;99.90;;;;;;4973763;28;20030;-74
2021/05/13 00:05:52;;;;;;;72.97;44.63;;;10.80;99.90;;;;;;4973808;28;20057;-73
2021/05/13 00:08:17;;;;;;;66.22;40.50;;;10.80;99.90;;;;;;4973785;28;20031;-77
2021/05/13 00:10:43;;;;;;;56.88;37.15;;;10.80;99.90;;;;;;4973481;28;20027;-78
2021/05/13 00:13:09;;;;;;;53.45;35.00;;;10.70;99.90;;;;;;4973648;28;20420;-76
2021/05/13 00:15:41;;;;;;;49.90;32.40;;;10.70;99.90;;;;;;4973560;28;20370;-77
2021/05/13 00:18:08;;;;;;;56.08;33.40;;;10.70;99.90;;;;;;4973702;28;20138;-78
2021/05/13 00:20:37;;;;;;;56.25;32.80;;;10.60;99.90;;;;;;4974045;28;20034;-78
2021/05/13 00:23:03;;;;;;;54.63;34.50;;;10.60;99.90;;;;;;4973647;28;20069;-77
2021/05/13 00:25:29;;;;;;;53.63;31.85;;;10.50;99.90;;;;;;4973347;28;20485;-77
2021/05/13 00:27:55;;;;;;;50.58;31.73;;;10.50;99.90;;;;;;4973385;28;20050;-77
2021/05/13 00:30:21;;;;;;;44.38;30.63;;;10.50;99.90;;;;;;4973708;28;20821;-77
2021/05/13 00:32:47;;;;;;;45.35;31.08;;;10.50;99.90;;;;;;4973293;28;20367;-77
2021/05/13 00:35:16;;;;;;;43.75;29.83;;;10.50;99.90;;;;;;4972980;28;20154;-78
2021/05/13 00:37:42;;;;;;;52.05;30.90;;;10.50;99.90;;;;;;4973373;28;20061;-76
2021/05/13 00:40:10;;;;;;;45.33;29.73;;;10.50;99.90;;;;;;4973255;28;20043;-77
2021/05/13 00:42:37;;;;;;;48.65;30.65;;;10.50;99.90;;;;;;4973326;28;20082;-73
2021/05/13 00:45:07;;;;;;;50.88;31.40;;;10.50;99.90;;;;;;4973537;28;20182;-73
2021/05/13 00:47:36;;;;;;;42.75;28.77;;;10.50;99.90;;;;;;5004525;28;20437;-72
2021/05/13 00:50:03;;;;;;;43.53;28.35;;;10.50;99.90;;;;;;4973206;28;20045;-74
2021/05/13 00:52:30;;;;;;;44.58;27.65;;;10.50;99.90;;;;;;4973120;28;20162;-75
2021/05/13 00:54:55;;;;;;;45.88;27.70;;;10.40;99.90;;;;;;5004396;28;20033;-75
2021/05/13 00:57:22;;;;;;;44.75;27.98;;;10.40;99.90;;;;;;5004321;28;20381;-75
2021/05/13 00:59:52;;;;;;;42.25;26.85;;;10.40;99.90;;;;;;4973021;28;20426;-75
2021/05/13 01:02:19;;;;;;;38.20;23.02;;;10.40;99.90;;;;;;4973027;28;20022;-75
2021/05/13 01:04:45;;;;;;;38.83;24.88;;;10.30;99.90;;;;;;4973145;28;20373;-75
2021/05/13 01:07:10;;;;;;;37.95;24.27;;;10.30;99.90;;;;;;4973012;28;20027;-75
2021/05/13 01:09:36;;;;;;;40.85;25.73;;;10.30;99.90;;;;;;5004364;28;20027;-73
2021/05/13 01:12:08;;;;;;;36.85;25.67;;;10.20;99.90;;;;;;4971745;28;20059;-74
2021/05/13 01:19:33;;;;;;;40.33;25.45;;;10.00;99.90;;;;;;4973016;28;20042;-73
2021/05/13 01:21:59;;;;;;;39.92;25.17;;;10.00;99.90;;;;;;4973106;28;20027;-74
2021/05/13 01:24:26;;;;;;;34.13;21.98;;;10.00;99.90;;;;;;5004254;28;20389;-73
2021/05/13 01:26:52;;;;;;;39.33;24.90;;;9.90;99.90;;;;;;4972783;28;20019;-73
2021/05/13 01:29:20;;;;;;;38.88;25.30;;;9.90;99.90;;;;;;4972887;28;20229;-74
2021/05/13 01:31:46;;;;;;;42.92;24.02;;;9.90;99.90;;;;;;4972838;28;20446;-75
2021/05/13 01:34:12;;;;;;;41.95;25.30;;;9.80;99.90;;;;;;4972731;28;20037;-74
2021/05/13 01:36:38;;;;;;;41.88;27.02;;;9.70;99.90;;;;;;5004154;28;20122;-75
2021/05/13 01:39:07;;;;;;;42.03;27.23;;;9.70;99.90;;;;;;4972614;28;20110;-74
2021/05/13 01:41:34;;;;;;;41.20;26.10;;;9.60;99.90;;;;;;4972639;28;20015;-75
2021/05/13 01:43:59;;;;;;;41.55;27.15;;;9.60;99.90;;;;;;4972698;28;20095;-74
2021/05/13 01:46:25;;;;;;;40.63;25.90;;;9.50;99.90;;;;;;4975711;28;20026;-74
2021/05/13 01:48:51;;;;;;;39.67;24.42;;;9.50;99.90;;;;;;4975207;28;20540;-74
2021/05/13 01:51:17;;;;;;;42.67;23.95;;;9.40;99.90;;;;;;4976151;28;20034;-74
2021/05/13 01:53:44;;;;;;;39.47;23.92;;;9.40;99.90;;;;;;4976178;28;20033;-73
2021/05/13 01:56:10;;;;;;;36.63;22.63;;;9.30;99.90;;;;;;4976108;28;20023;-73
2021/05/13 01:58:36;;;;;;;39.40;24.23;;;9.30;99.90;;;;;;4974762;28;20429;-74
2021/05/13 02:01:07;;;;;;;40.03;24.77;;;9.30;99.90;;;;;;4975892;28;20019;-75
2021/05/13 02:03:35;;;;;;;39.65;25.08;;;9.20;99.90;;;;;;4976004;28;20047;-74
2021/05/13 02:06:00;;;;;;;39.67;24.13;;;9.20;99.90;;;;;;4975829;28;20022;-74
2021/05/13 02:08:26;;;;;;;38.33;25.20;;;9.20;99.90;;;;;;4975841;28;20023;-75
2021/05/13 02:10:52;;;;;;;38.42;24.60;;;9.10;99.90;;;;;;4975760;28;20414;-75
2021/05/13 02:13:17;;;;;;;35.05;22.88;;;9.10;99.90;;;;;;4975905;28;20042;-74
2021/05/13 02:15:43;;;;;;;40.95;24.50;;;9.10;99.90;;;;;;4975929;28;20107;-74
2021/05/13 02:18:09;;;;;;;51.30;27.27;;;9.10;99.90;;;;;;4975836;28;20030;-74
2021/05/13 02:20:35;;;;;;;48.72;26.83;;;9.10;99.90;;;;;;4975602;28;20105;-74
2021/05/13 02:23:01;;;;;;;42.72;23.17;;;9.10;99.90;;;;;;4975467;28;20023;-74
2021/05/13 02:25:29;;;;;;;38.25;23.27;;;9.10;99.90;;;;;;4975524;28;20075;-74
2021/05/13 02:27:55;;;;;;;36.80;23.75;;;9.20;99.90;;;;;;4975504;28;20482;-74
2021/05/13 02:30:20;;;;;;;38.13;23.70;;;9.30;99.90;;;;;;4975402;28;20038;-74
2021/05/13 02:32:46;;;;;;;36.55;23.00;;;9.50;99.90;;;;;;4974086;28;20122;-74
2021/05/13 02:35:13;;;;;;;34.42;22.48;;;10.00;99.90;;;;;;4974021;28;20034;-75
2021/05/13 02:37:39;;;;;;;30.13;20.58;;;10.60;99.90;;;;;;4974169;28;20078;-74
2021/05/13 02:40:07;;;;;;;35.28;22.27;;;11.20;99.90;;;;;;5006520;28;20054;-74
2021/05/13 02:42:33;;;;;;;31.67;20.58;;;11.60;99.90;;;;;;5006414;28;20142;-75
2021/05/13 02:44:59;;;;;;;33.70;20.05;;;11.60;99.90;;;;;;4975216;28;20031;-74
2021/05/13 02:47:25;;;;;;;35.03;19.75;;;11.50;99.90;;;;;;4975110;28;20097;-75
2021/05/13 02:49:51;;;;;;;32.92;19.77;;;11.30;99.90;;;;;;4975233;28;20536;-73
2021/05/13 02:52:16;;;;;;;24.83;17.98;;;11.20;99.90;;;;;;4975217;28;20026;-74
2021/05/13 02:54:42;;;;;;;27.52;17.23;;;11.00;99.90;;;;;;4974964;28;20495;-74
2021/05/13 02:57:08;;;;;;;23.13;16.80;;;10.80;99.90;;;;;;4974151;28;20118;-74
2021/05/13 03:02:25;;;;;;;22.00;15.15;;;10.60;99.90;;;;;;4959319;28;20490;-74
2021/05/13 03:04:51;;;;;;;29.80;15.77;;;10.50;99.90;;;;;;4974914;28;20102;-74
2021/05/13 03:07:17;;;;;;;22.85;14.90;;;10.40;99.90;;;;;;4974959;28;20470;-74
2021/05/13 03:09:46;;;;;;;23.48;15.20;;;10.30;99.90;;;;;;4974427;28;20070;-75
2021/05/13 03:12:12;;;;;;;23.60;15.95;;;10.30;99.90;;;;;;4974539;28;20131;-74
2021/05/13 03:14:38;;;;;;;26.23;15.70;;;10.20;99.90;;;;;;4973224;28;20118;-75
2021/05/13 03:17:04;;;;;;;24.98;14.55;;;10.20;99.90;;;;;;4974554;28;20026;-75
2021/05/13 03:22:25;;;;;;;25.88;16.23;;;10.10;99.90;;;;;;4965461;28;20503;-75
2021/05/13 03:24:58;;;;;;;30.88;16.60;;;10.10;99.90;;;;;;4974287;28;20031;-74
2021/05/13 03:29:50;;;;;;;20.95;14.18;;;10.00;99.90;;;;;;4974233;28;20377;-75
2021/05/13 03:32:16;;;;;;;20.45;12.85;;;10.00;99.90;;;;;;4974270;28;20042;-74
2021/05/13 03:34:42;;;;;;;21.13;13.88;;;10.00;99.90;;;;;;4974041;28;20030;-74
2021/05/13 03:37:07;;;;;;;18.27;12.77;;;10.00;99.90;;;;;;4974269;28;20034;-75
2021/05/13 03:39:33;;;;;;;19.15;13.55;;;9.90;99.90;;;;;;4973894;28;20410;-75
2021/05/13 03:41:59;;;;;;;19.05;12.63;;;10.00;99.90;;;;;;4973856;28;20146;-73
2021/05/13 03:44:24;;;;;;;18.63;13.18;;;10.00;99.90;;;;;;4974032;28;20030;-73
2021/05/13 03:46:50;;;;;;;18.92;12.98;;;10.10;99.90;;;;;;4971898;28;20031;-73
2021/05/13 03:49:16;;;;;;;18.15;13.10;;;10.20;99.90;;;;;;4972417;28;20037;-72
2021/05/13 03:51:42;;;;;;;19.77;12.48;;;10.50;99.90;;;;;;4972844;28;20061;-73
2021/05/13 03:54:07;;;;;;;18.00;11.45;;;10.80;99.90;;;;;;4972901;28;20031;-74
2021/05/13 03:56:33;;;;;;;15.07;10.95;;;11.10;99.90;;;;;;4973285;28;20039;-74
2021/05/13 03:59:05;;;;;;;14.43;10.73;;;11.50;99.90;;;;;;4972879;28;20065;-73
2021/05/13 04:02:05;;;;;;;11.90;9.18;;;12.20;99.90;;;;;;4972569;28;20034;-73
2021/05/13 04:04:17;;;;;;;10.82;9.13;;;13.90;99.90;;;;;;4972560;28;20122;-74
2021/05/13 04:06:43;;;;;;;12.52;9.50;;;15.30;99.90;;;;;;4971324;28;20118;-74
2021/05/13 04:09:09;;;;;;;14.35;8.55;;;15.90;99.90;;;;;;4971700;28;20090;-74
2021/05/13 04:11:39;;;;;;;12.82;8.48;;;16.60;99.90;;;;;;4972384;28;20026;-73
2021/05/13 04:14:09;;;;;;;13.10;8.73;;;17.90;99.90;;;;;;4972170;28;20030;-74
2021/05/13 04:16:38;;;;;;;9.60;7.15;;;19.80;99.90;;;;;;4972162;28;20081;-74
2021/05/13 04:19:04;;;;;;;9.60;7.63;;;21.60;99.90;;;;;;4972650;28;20035;-73
2021/05/13 04:21:30;;;;;;;8.02;7.00;;;23.10;99.90;;;;;;4972646;28;20093;-73
2021/05/13 04:23:56;;;;;;;7.43;6.25;;;24.40;99.90;;;;;;4971325;28;20355;-73
2021/05/13 04:26:22;;;;;;;7.80;7.10;;;25.60;99.90;;;;;;4972474;28;20035;-73
2021/05/13 04:28:48;;;;;;;7.97;6.63;;;26.70;98.20;;;;;;4972192;28;20438;-74
2021/05/13 04:31:14;;;;;;;9.57;6.50;;;27.50;93.50;;;;;;4972177;28;20429;-73
2021/05/13 04:33:39;;;;;;;10.77;6.97;;;28.10;90.20;;;;;;4972443;28;20026;-73
2021/05/13 04:36:06;;;;;;;11.02;6.72;;;28.80;84.40;;;;;;4972021;28;20058;-74
2021/05/13 04:38:32;;;;;;;7.93;6.20;;;29.40;80.30;;;;;;5003542;28;20034;-75
2021/05/13 04:40:57;;;;;;;7.53;6.20;;;29.80;76.20;;;;;;4972458;28;20023;-74
2021/05/13 04:43:23;;;;;;;9.25;7.38;;;30.30;72.20;;;;;;4972115;28;20817;-74
2021/05/13 04:45:49;;;;;;;6.78;6.18;;;30.50;69.50;;;;;;4972324;28;20058;-77
2021/05/13 04:48:17;;;;;;;9.93;5.70;;;30.90;67.30;;;;;;4972307;28;20027;-74
2021/05/13 04:50:43;;;;;;;11.90;6.82;;;31.20;65.10;;;;;;4971701;28;20034;-74
2021/05/13 04:53:10;;;;;;;6.47;5.88;;;31.50;63.20;;;;;;4971876;28;20027;-75
2021/05/13 04:55:39;;;;;;;8.75;6.05;;;31.70;61.90;;;;;;4971802;28;20023;-74
2021/05/13 04:58:07;;;;;;;7.00;6.00;;;31.80;60.70;;;;;;4972173;28;20023;-73
2021/05/13 05:00:33;;;;;;;8.00;6.10;;;32.20;60.60;;;;;;4971630;28;20054;-74
2021/05/13 05:02:59;;;;;;;6.25;5.65;;;32.60;60.00;;;;;;4971890;28;20746;-75
2021/05/13 05:05:25;;;;;;;9.38;5.75;;;32.80;58.00;;;;;;4970205;28;20034;-76
2021/05/13 05:07:51;;;;;;;7.82;5.28;;;32.70;57.30;;;;;;4973670;28;20019;-85
2021/05/13 05:10:17;;;;;;;6.43;4.88;;;32.80;56.60;;;;;;4973099;28;20527;-84
2021/05/13 05:12:43;;;;;;;8.02;5.35;;;32.60;55.20;;;;;;4972629;28;20026;-83
2021/05/13 05:15:10;;;;;;;6.32;5.03;;;32.50;54.50;;;;;;4971930;28;20031;-84
2021/05/13 05:17:35;;;;;;;15.25;6.25;;;32.50;53.60;;;;;;4973072;28;20031;-84
2021/05/13 05:20:02;;;;;;;8.70;5.63;;;32.80;53.80;;;;;;4973205;28;20038;-85
2021/05/13 05:22:27;;;;;;;9.25;5.28;;;33.30;53.60;;;;;;4976045;28;20023;-83
2021/05/13 05:24:53;;;;;;;5.75;4.70;;;34.00;52.10;;;;;;4975224;28;20027;-84
2021/05/13 05:27:19;;;;;;;11.30;5.50;;;34.20;50.20;;;;;;4976913;28;20153;-84
2021/05/13 05:29:45;;;;;;;5.95;5.38;;;34.00;49.30;;;;;;4977339;28;20034;-84
2021/05/13 05:32:10;;;;;;;8.07;5.13;;;34.30;49.00;;;;;;4976971;28;20133;-84
2021/05/13 05:34:36;;;;;;;6.43;4.30;;;34.60;48.10;;;;;;4988144;28;20019;-84
2021/05/13 05:37:04;;;;;;;5.07;4.68;;;34.60;47.40;;;;;;4981256;28;20154;-84
2021/05/13 05:39:30;;;;;;;8.73;4.30;;;35.10;46.90;;;;;;4976909;28;20524;-83
2021/05/13 05:41:55;;;;;;;4.95;4.30;;;35.40;46.60;;;;;;4976905;28;20031;-85
2021/05/13 05:44:22;;;;;;;10.02;4.90;;;35.80;46.40;;;;;;4977145;28;20545;-83
2021/05/13 05:46:48;;;;;;;6.15;4.57;;;36.00;45.70;;;;;;4977160;28;20023;-84
2021/05/13 05:49:13;;;;;;;14.88;5.22;;;36.30;44.90;;;;;;4977056;28;20035;-85
2021/05/13 05:51:39;;;;;;;16.55;5.25;;;36.50;44.30;;;;;;4978218;28;20042;-85
2021/05/13 05:54:06;;;;;;;6.22;4.60;;;36.60;44.00;;;;;;4979277;28;20030;-84
2021/05/13 05:56:34;;;;;;;4.63;4.22;;;36.70;43.40;;;;;;4976634;28;20025;-85
2021/05/13 05:59:00;;;;;;;7.93;4.22;;;36.80;43.00;;;;;;4976719;28;20101;-84
2021/05/13 06:01:26;;;;;;;7.97;4.50;;;36.80;42.50;;;;;;4976492;28;20469;-83
2021/05/13 06:03:52;;;;;;;6.15;4.30;;;36.80;42.30;;;;;;4976490;28;20027;-84
2021/05/13 06:06:19;;;;;;;4.93;3.70;;;36.80;42.20;;;;;;4976685;28;20106;-82
2021/05/13 06:08:45;;;;;;;4.40;3.63;;;37.00;41.70;;;;;;4975391;28;20138;-83
2021/05/13 06:11:11;;;;;;;3.55;3.25;;;36.90;41.10;;;;;;4975021;28;20101;-83
2021/05/13 06:13:37;;;;;;;6.32;3.80;;;36.50;40.10;;;;;;4977043;28;20114;-83
2021/05/13 06:16:03;;;;;;;6.30;3.10;;;35.90;40.20;;;;;;4976598;28;20105;-82
2021/05/13 06:18:29;;;;;;;3.50;3.20;;;35.70;40.30;;;;;;5007935;28;20118;-84
2021/05/13 06:20:54;;;;;;;7.45;6.70;;;35.60;40.80;;;;;;4975501;28;20082;-83
2021/05/13 06:23:20;;;;;;;7.80;6.30;;;35.80;41.00;;;;;;4975313;28;20031;-83
2021/05/13 06:25:46;;;;;;;6.38;4.57;;;35.80;40.30;;;;;;4975170;28;20019;-84
2021/05/13 06:28:11;;;;;;;7.53;4.97;;;35.50;40.20;;;;;;4974347;28;20073;-82
2021/05/13 06:30:39;;;;;;;5.18;4.60;;;34.90;40.70;;;;;;4974121;28;20043;-83
2021/05/13 06:33:05;;;;;;;6.95;5.40;;;34.50;41.60;;;;;;4973902;28;20750;-83
2021/05/13 06:35:32;;;;;;;9.40;4.55;;;34.40;41.40;;;;;;4974271;28;20030;-82
2021/05/13 06:37:57;;;;;;;3.28;2.97;;;34.20;41.70;;;;;;4974420;28;20047;-82
2021/05/13 06:40:24;;;;;;;2.58;2.38;;;33.90;41.60;;;;;;4975103;28;20061;-82
2021/05/13 06:42:50;;;;;;;2.85;2.65;;;33.30;41.10;;;;;;4974336;28;20038;-83
2021/05/13 06:45:16;;;;;;;2.80;2.60;;;33.20;41.70;;;;;;4974873;28;20365;-85
2021/05/13 06:47:43;;;;;;;9.07;4.32;;;33.20;41.60;;;;;;4977385;28;20030;-85
2021/05/13 06:50:09;;;;;;;4.43;3.33;;;32.90;41.00;;;;;;4981519;28;20315;-85
2021/05/13 06:52:36;;;;;;;5.57;3.78;;;32.10;41.30;;;;;;4976841;28;20026;-85
2021/05/13 06:55:03;;;;;;;5.03;2.97;;;31.20;40.90;;;;;;4976091;28;20030;-84
2021/05/13 06:57:29;;;;;;;4.40;2.08;;;30.40;41.80;;;;;;4975774;28;20041;-84
2021/05/13 06:59:55;;;;;;;2.95;2.40;;;29.60;42.30;;;;;;4975624;28;20477;-84
2021/05/13 07:02:22;;;;;;;2.90;2.60;;;28.80;42.90;;;;;;4975874;28;20030;-84
2021/05/13 07:04:47;;;;;;;3.53;2.33;;;28.20;43.90;;;;;;4975887;28;20046;-84
2021/05/13 07:07:13;;;;;;;2.78;2.42;;;27.90;44.70;;;;;;4975400;28;20342;-84
2021/05/13 07:09:39;;;;;;;4.13;2.45;;;27.50;45.40;;;;;;5006909;28;20027;-83
2021/05/13 07:12:05;;;;;;;4.18;3.15;;;27.30;46.20;;;;;;4975206;28;20019;-83
2021/05/13 07:14:30;;;;;;;3.03;2.72;;;27.20;46.10;;;;;;4975281;28;20038;-84
2021/05/13 07:16:56;;;;;;;4.80;2.65;;;27.10;46.70;;;;;;4974180;28;20031;-83
2021/05/13 07:19:22;;;;;;;3.75;2.47;;;27.30;47.70;;;;;;5005064;28;20077;-85
2021/05/13 07:21:49;;;;;;;6.53;3.13;;;27.50;47.30;;;;;;4974519;28;20435;-84
2021/05/13 07:24:15;;;;;;;2.58;2.38;;;27.70;46.90;;;;;;4973687;28;20027;-84
2021/05/13 07:26:41;;;;;;;3.67;2.70;;;27.80;46.40;;;;;;5008972;28;20037;-83
2021/05/13 07:29:08;;;;;;;7.72;3.53;;;27.70;45.60;;;;;;4974519;28;20449;-84
2021/05/13 07:31:33;;;;;;;6.57;3.90;;;27.30;45.40;;;;;;4975307;28;20027;-84
2021/05/13 07:33:59;;;;;;;6.97;3.28;;;26.90;45.40;;;;;;4975990;28;20038;-83
2021/05/13 07:36:27;;;;;;;6.18;3.97;;;26.20;45.70;;;;;;4975069;28;20422;-84
2021/05/13 07:38:54;;;;;;;4.63;2.75;;;25.60;45.90;;;;;;4973073;28;20308;-84
2021/05/13 07:41:20;;;;;;;6.32;2.95;;;25.00;45.90;;;;;;4975033;28;20038;-84
2021/05/13 07:43:45;;;;;;;5.50;3.10;;;24.30;47.10;;;;;;5006092;28;20031;-86
2021/05/13 07:46:12;;;;;;;2.70;2.50;;;24.00;48.60;;;;;;4974909;28;20054;-84
2021/05/13 07:48:37;;;;;;;2.88;2.33;;;24.00;49.20;;;;;;4975357;28;20113;-84
2021/05/13 07:51:04;;;;;;;7.03;2.38;;;23.90;49.60;;;;;;5006413;28;20386;-85
2021/05/13 07:53:30;;;;;;;3.25;2.38;;;24.10;50.00;;;;;;4974331;28;20365;-84
2021/05/13 07:55:56;;;;;;;5.70;3.20;;;24.30;49.60;;;;;;4974915;28;20019;-84
2021/05/13 07:58:23;;;;;;;13.52;3.90;;;24.30;48.80;;;;;;4974763;28;20082;-85
2021/05/13 08:00:49;;;;;;;6.30;3.45;;;24.10;49.20;;;;;;4974571;28;20054;-85
2021/05/13 08:03:15;;;;;;;3.20;2.80;;;23.60;48.30;;;;;;4976815;28;20769;-83
2021/05/13 08:05:41;;;;;;;3.60;2.70;;;23.10;48.90;;;;;;5006860;28;20058;-84
2021/05/13 08:08:07;;;;;;;8.23;3.15;;;22.70;49.90;;;;;;4975179;28;20031;-85
2021/05/13 08:10:33;;;;;;;4.68;2.60;;;22.60;50.80;;;;;;4974853;28;20065;-84
2021/05/13 08:12:58;;;;;;;3.05;2.20;;;22.50;51.60;;;;;;4974289;28;20106;-84
2021/05/13 08:15:24;;;;;;;2.92;2.40;;;22.80;52.10;;;;;;4974418;28;20026;-83
2021/05/13 08:17:50;;;;;;;7.47;4.60;;;23.00;51.40;;;;;;4972612;28;20018;-84
2021/05/13 08:20:18;;;;;;;5.47;4.60;;;22.70;51.90;;;;;;4973058;28;20031;-83
2021/05/13 08:22:48;;;;;;;8.43;5.05;;;22.00;52.50;;;;;;4973025;28;20027;-84
2021/05/13 08:25:20;;;;;;;6.45;4.70;;;21.40;54.20;;;;;;4973503;28;20027;-84
2021/05/13 08:27:49;;;;;;;5.68;4.70;;;21.20;55.80;;;;;;4972907;28;20093;-84
2021/05/13 08:30:16;;;;;;;9.43;5.32;;;21.30;56.10;;;;;;4972500;28;20038;-84
2021/05/13 08:32:41;;;;;;;9.40;5.50;;;21.40;57.20;;;;;;4972779;28;20026;-84
2021/05/13 08:35:07;;;;;;;7.18;5.63;;;21.70;56.50;;;;;;4972533;28;20026;-84
2021/05/13 08:37:33;;;;;;;6.65;4.85;;;21.80;56.00;;;;;;4973105;28;20031;-83
2021/05/13 08:39:59;;;;;;;8.15;5.13;;;21.80;56.30;;;;;;4981345;28;20031;-83
2021/05/13 08:42:26;;;;;;;6.85;5.03;;;21.80;56.00;;;;;;4980334;28;20105;-83
2021/05/13 08:44:52;;;;;;;5.40;4.57;;;21.60;56.90;;;;;;4974174;28;20110;-83
2021/05/13 08:47:18;;;;;;;4.65;2.67;;;21.40;56.60;;;;;;4973196;28;20071;-83
2021/05/13 08:49:44;;;;;;;3.00;2.00;;;21.30;54.80;;;;;;4972544;28;20027;-84
2021/05/13 08:52:15;;;;;;;2.88;2.63;;;21.30;53.50;;;;;;4972884;28;20031;-83
2021/05/13 08:54:51;;;;;;;4.93;2.80;;;21.40;53.00;;;;;;4971897;28;20082;-84
2021/05/13 08:57:17;;;;;;;3.25;2.95;;;21.50;53.50;;;;;;4972243;28;20031;-83
2021/05/13 08:59:43;;;;;;;4.78;4.30;;;21.70;54.40;;;;;;4971888;28;20058;-84
2021/05/13 09:02:10;;;;;;;4.25;3.33;;;22.00;54.70;;;;;;4972375;28;20031;-83
2021/05/13 09:04:51;;;;;;;10.13;4.43;;;22.20;55.20;;;;;;4973032;28;20037;-83
2021/05/13 09:07:22;;;;;;;5.90;3.90;;;22.10;54.70;;;;;;4972356;28;20525;-83
2021/05/13 09:10:05;;;;;;;4.00;3.40;;;21.80;54.90;;;;;;4971248;28;20034;-85
2021/05/13 09:12:37;;;;;;;4.90;4.30;;;21.40;55.70;;;;;;4972144;28;20050;-84
2021/05/13 09:15:06;;;;;;;;;;;21.10;56.20;;;;;;4977532;28;20046;-84
2021/05/13 09:17:33;;;;;;;4.32;3.50;;;20.80;57.60;;;;;;4977384;28;19906;-85
2021/05/13 09:20:00;;;;;;;3.90;3.50;;;20.50;57.40;;;;;;4973588;28;20038;-85
2021/05/13 09:22:28;;;;;;;4.22;3.00;;;20.10;57.70;;;;;;4972221;28;20111;-83
2021/05/13 09:25:00;;;;;;;4.10;2.92;;;19.80;57.60;;;;;;4973453;28;20437;-84
2021/05/13 09:27:40;;;;;;;5.00;3.00;;;19.50;58.50;;;;;;4972592;28;20129;-84
2021/05/13 09:30:18;;;;;;;3.22;2.95;;;19.30;59.40;;;;;;4972430;28;20074;-85
2021/05/13 09:33:09;;;;;;;3.40;3.15;;;19.30;60.40;;;;;;5003402;28;20400;-84
2021/05/13 09:35:36;;;;;;;4.30;3.30;;;19.40;60.80;;;;;;4971751;28;20026;-84
2021/05/13 09:38:09;;;;;;;3.10;2.90;;;19.30;60.00;;;;;;4972838;28;20019;-85
2021/05/13 09:40:37;;;;;;;3.92;2.80;;;19.00;60.10;;;;;;4972393;28;20473;-83
2021/05/13 09:43:19;;;;;;;4.80;3.42;;;18.90;60.30;;;;;;4972431;28;20023;-84
2021/05/13 09:45:51;;;;;;;7.22;3.40;;;18.70;61.40;;;;;;4972819;28;20027;-83
2021/05/13 09:48:41;;;;;;;7.57;3.30;;;18.60;62.80;;;;;;4972294;28;20066;-85
2021/05/13 09:51:36;;;;;;;4.40;3.20;;;18.50;62.40;;;;;;4973164;28;20042;-83
2021/05/13 09:54:09;;;;;;;5.55;3.15;;;18.40;62.30;;;;;;4981551;28;20093;-81
2021/05/13 09:56:38;;;;;;;5.22;3.40;;;18.40;62.70;;;;;;4974152;28;20038;-85
2021/05/13 09:59:28;;;;;;;5.10;3.47;;;18.30;62.80;;;;;;4973542;28;20034;-86
2021/05/13 10:02:06;;;;;;;4.03;3.10;;;18.40;64.80;;;;;;4965780;28;20235;-86
2021/05/13 10:04:32;;;;;;;3.65;3.20;;;18.50;63.00;;;;;;4973025;28;20023;-85
2021/05/13 10:06:59;;;;;;;4.72;3.17;;;18.50;63.10;;;;;;4973849;28;20046;-86
2021/05/13 10:09:25;;;;;;;6.88;3.38;;;18.40;63.00;;;;;;4976334;28;20504;-84
2021/05/13 10:11:53;;;;;;;4.07;3.20;;;18.40;63.40;;;;;;4976020;28;20030;-83
2021/05/13 10:14:20;;;;;;;2.88;2.67;;;18.40;62.90;;;;;;4974725;28;20090;-85
2021/05/13 10:16:48;;;;;;;4.35;3.22;;;18.30;62.90;;;;;;4975415;28;20165;-85
2021/05/13 10:19:19;;;;;;;3.15;2.85;;;18.20;63.20;;;;;;5007018;28;20066;-86
2021/05/13 10:21:46;;;;;;;3.60;3.30;;;18.20;63.00;;;;;;4975848;28;20026;-83
2021/05/13 10:24:14;;;;;;;7.25;2.97;;;18.20;63.60;;;;;;4975761;28;20113;-84
2021/05/13 10:26:51;;;;;;;3.60;3.22;;;18.20;64.40;;;;;;5009256;28;20027;-85
2021/05/13 10:29:20;;;;;;;3.28;2.92;;;18.20;64.10;;;;;;4980672;28;20117;-82
2021/05/13 10:32:09;;;;;;;4.38;2.85;;;18.20;63.80;;;;;;4981522;28;20027;-84
2021/05/13 10:34:41;;;;;;;2.67;2.50;;;18.20;63.70;;;;;;4976499;28;20133;-84
2021/05/13 10:37:11;;;;;;;;;;;18.10;63.30;;;;;;4976501;28;20033;-82
2021/05/13 10:39:37;;;;;;;2.60;2.40;;;17.90;64.10;;;;;;4974995;28;19910;-80
2021/05/13 10:42:32;;;;;;;4.90;2.83;;;17.80;64.40;;;;;;4975662;28;20346;-85
2021/05/13 10:44:58;;;;;;;3.05;2.53;;;17.70;64.50;;;;;;4974646;28;20747;-85
2021/05/13 10:47:29;;;;;;;3.88;3.47;;;17.70;64.10;;;;;;4975928;28;20027;-85
2021/05/13 10:49:55;;;;;;;3.88;2.97;;;17.60;63.80;;;;;;4976099;28;20466;-85
2021/05/13 10:52:31;;;;;;;3.50;3.20;;;17.60;64.20;;;;;;5007505;28;20121;-86
2021/05/13 10:54:57;;;;;;;3.33;3.03;;;17.60;64.50;;;;;;4976199;28;20023;-86
2021/05/13 10:57:23;;;;;;;3.70;2.60;;;17.60;63.90;;;;;;5006898;28;20022;-86
2021/05/13 11:00:07;;;;;;;3.92;2.65;;;17.70;64.10;;;;;;4975280;28;20034;-86
2021/05/13 11:02:44;;;;;;;2.72;2.40;;;17.80;64.60;;;;;;5006235;28;20050;-85
2021/05/13 11:05:29;;;;;;;5.22;2.60;;;17.90;63.50;;;;;;4975549;28;20027;-85
2021/05/13 11:08:16;;;;;;;3.08;2.65;;;17.80;63.60;;;;;;4989304;28;20052;-84
2021/05/13 11:11:02;;;;;;;2.60;2.38;;;17.80;62.80;;;;;;4969165;28;20043;-85
2021/05/13 11:13:41;;;;;;;3.13;2.30;;;17.60;63.20;;;;;;4974742;28;20038;-86
2021/05/13 11:16:26;;;;;;;2.95;2.42;;;17.60;63.50;;;;;;4975829;28;20046;-85
2021/05/13 11:19:16;;;;;;;5.13;3.30;;;17.70;64.30;;;;;;4974073;28;20384;-85
2021/05/13 11:21:55;;;;;;;6.07;3.40;;;17.90;64.30;;;;;;4975190;28;20065;-87
2021/05/13 11:24:21;;;;;;;4.32;3.60;;;17.90;64.60;;;;;;4975367;28;20027;-86
2021/05/13 11:26:54;;;;;;;8.00;3.80;;;18.10;64.90;;;;;;4974536;28;20033;-86
2021/05/13 11:29:19;;;;;;;3.17;2.90;;;18.30;63.80;;;;;;4976579;28;20019;-87
2021/05/13 11:31:50;;;;;;;3.40;2.83;;;18.60;64.20;;;;;;4976389;28;20093;-87
2021/05/13 11:34:17;;;;;;;4.45;4.05;;;18.60;62.30;;;;;;5007183;28;20101;-87
2021/05/13 11:36:45;;;;;;;4.80;3.75;;;18.60;61.60;;;;;;4976160;28;20029;-85
2021/05/13 11:39:15;;;;;;;6.00;3.40;;;18.50;62.90;;;;;;4977003;28;20078;-90
2021/05/13 11:41:58;;;;;;;6.88;2.83;;;18.50;62.20;;;;;;5009858;28;20058;-89
2021/05/13 11:44:27;;;;;;;6.43;3.97;;;18.40;63.00;;;;;;4982804;28;20069;-87
2021/05/13 11:46:53;;;;;;;6.57;3.80;;;18.30;63.00;;;;;;4979956;28;20034;-85
2021/05/13 11:49:22;;;;;;;6.00;3.65;;;18.20;63.10;;;;;;4976984;28;20030;-87
2021/05/13 11:51:48;;;;;;;3.70;3.40;;;18.00;63.50;;;;;;4975240;28;20474;-86
2021/05/13 11:54:13;;;;;;;8.38;4.15;;;18.00;64.60;;;;;;4974606;28;20027;-84
2021/05/13 11:56:41;;;;;;;3.80;3.20;;;18.10;65.30;;;;;;4976827;28;20043;-87
2021/05/13 11:59:12;;;;;;;6.88;3.15;;;18.10;64.80;;;;;;4975199;28;20042;-86
2021/05/13 12:01:39;;;;;;;7.03;3.38;;;18.10;64.30;;;;;;4975491;28;20041;-87
2021/05/13 12:04:11;;;;;;;6.53;3.30;;;18.00;64.40;;;;;;4976316;28;20089;-86
2021/05/13 12:06:47;;;;;;;5.85;3.10;;;17.80;63.70;;;;;;4975462;28;20425;-85
2021/05/13 12:09:14;;;;;;;5.93;3.22;;;17.70;64.10;;;;;;5006162;28;20043;-85
2021/05/13 12:11:41;;;;;;;4.18;3.05;;;17.60;64.60;;;;;;4975777;28;20031;-84
2021/05/13 12:14:12;;;;;;;5.60;3.42;;;17.40;64.70;;;;;;4985185;28;20493;-82
2021/05/13 12:16:38;;;;;;;8.93;3.55;;;17.40;65.30;;;;;;4976735;28;20094;-84
2021/05/13 12:19:10;;;;;;;8.68;3.80;;;17.40;65.60;;;;;;4980907;28;20384;-84
2021/05/13 12:21:37;;;;;;;6.10;3.75;;;17.40;65.50;;;;;;4974256;28;20026;-84
2021/05/13 12:24:05;;;;;;;6.40;3.55;;;17.40;66.10;;;;;;4974291;28;20031;-85
2021/05/13 12:26:37;;;;;;;9.40;4.18;;;17.40;65.70;;;;;;5004565;28;20436;-84
2021/05/13 12:29:04;;;;;;;8.13;4.65;;;17.40;66.30;;;;;;4973316;28;20046;-84
2021/05/13 12:31:39;;;;;;;10.85;4.40;;;17.40;66.60;;;;;;4973058;28;20026;-85
2021/05/13 12:34:06;;;;;;;8.90;4.85;;;17.50;67.40;;;;;;4973417;28;20077;-84
2021/05/13 12:36:36;;;;;;;14.32;5.10;;;17.50;67.30;;;;;;4973631;28;20102;-84
2021/05/13 12:39:06;;;;;;;11.90;5.07;;;17.60;67.60;;;;;;4973374;28;20031;-84
2021/05/13 12:41:32;;;;;;;6.38;4.90;;;17.70;68.30;;;;;;4973607;28;20058;-85
2021/05/13 12:44:33;;;;;;;9.10;4.50;;;17.80;68.60;;;;;;4974690;28;20117;-84
2021/05/13 12:47:01;;;;;;;11.80;4.63;;;17.80;68.40;;;;;;4973380;28;20026;-85
2021/05/13 12:49:29;;;;;;;4.25;2.72;;;17.90;67.60;;;;;;4973956;28;20054;-84
2021/05/13 12:52:02;;;;;;;3.67;2.42;;;18.00;65.40;;;;;;4973526;28;20034;-85
2021/05/13 12:54:28;;;;;;;8.70;2.40;;;18.20;63.30;;;;;;4985567;28;20853;-84
2021/05/13 12:57:18;;;;;;;2.75;2.28;;;18.40;62.10;;;;;;4977991;28;20062;-84
2021/05/13 12:59:57;;;;;;;3.05;2.40;;;18.50;61.40;;;;;;4973953;28;20067;-84